Time;durP1;ratioP1;P1;durP2;ratioP2;P2;SDS_P1;SDS_P2;PMS_P1;PMS_P2;Temp;Humidity;BMP_temperature;BMP_pressure;BME280_temperature;BME280_humidity;BME280_pressure;Samples;Min_cycle;Max_cycle;Signal;HPM_P1;HPM_P2
2021/07/22 00:01:34;;;;;;;7.90;7.00;;;20.50;89.80;;;;;;10433518;28;20214;-82
2021/07/22 00:06:36;;;;;;;7.13;6.53;;;20.40;89.80;;;;;;10438553;28;20202;-81
2021/07/22 00:11:38;;;;;;;8.20;7.20;;;20.40;90.60;;;;;;10457664;28;20249;-81
2021/07/22 00:16:42;;;;;;;7.70;6.87;;;20.30;90.30;;;;;;10461642;28;20584;-81
2021/07/22 00:21:44;;;;;;;7.60;6.90;;;20.30;90.40;;;;;;10449183;22;20224;-78
2021/07/22 00:26:46;;;;;;;7.70;6.90;;;20.20;89.20;;;;;;10472099;28;20231;-78
2021/07/22 00:31:52;;;;;;;8.93;7.97;;;20.10;90.60;;;;;;10471481;28;20308;-77
2021/07/22 00:36:55;;;;;;;7.90;7.10;;;20.10;90.50;;;;;;10443032;28;20204;-77
2021/07/22 00:41:57;;;;;;;7.93;7.13;;;20.10;90.60;;;;;;10456682;28;20589;-77
2021/07/22 00:47:01;;;;;;;12.50;7.63;;;20.10;91.10;;;;;;10458161;28;20209;-77
2021/07/22 00:52:04;;;;;;;9.60;8.70;;;20.00;91.30;;;;;;10458278;28;20217;-77
2021/07/22 00:57:06;;;;;;;8.77;7.97;;;19.90;90.80;;;;;;10457258;28;20225;-77
2021/07/22 01:02:11;;;;;;;9.10;8.23;;;19.90;91.30;;;;;;10451810;28;20229;-77
2021/07/22 01:07:14;;;;;;;10.43;8.37;;;19.90;91.80;;;;;;10456703;28;20722;-78
2021/07/22 01:12:16;;;;;;;8.97;8.07;;;19.90;91.50;;;;;;10458676;28;20335;-77
2021/07/22 01:17:29;;;;;;;8.83;8.03;;;19.70;91.90;;;;;;10456516;28;20561;-77
2021/07/22 01:22:33;;;;;;;11.17;8.07;;;19.70;92.40;;;;;;10445979;28;20236;-77
2021/07/22 01:27:35;;;;;;;10.43;8.23;;;19.70;92.30;;;;;;10456575;28;20201;-78
2021/07/22 01:32:43;;;;;;;10.03;9.03;;;19.70;91.80;;;;;;10458512;28;20213;-78
2021/07/22 01:37:49;;;;;;;8.93;7.87;;;19.60;91.80;;;;;;10444149;28;20214;-78
2021/07/22 01:42:52;;;;;;;9.13;8.23;;;19.50;92.40;;;;;;10455782;28;20225;-77
2021/07/22 01:47:58;;;;;;;10.73;9.23;;;19.50;93.50;;;;;;10455719;28;20206;-79
2021/07/22 01:53:03;;;;;;;9.30;8.40;;;19.50;92.70;;;;;;10457528;28;20554;-78
2021/07/22 01:58:05;;;;;;;9.30;8.40;;;19.50;92.60;;;;;;10455165;28;20205;-77
2021/07/22 02:03:14;;;;;;;9.70;8.80;;;19.40;93.10;;;;;;10454979;28;20705;-78
2021/07/22 02:08:35;;;;;;;10.20;9.20;;;19.40;93.30;;;;;;10455689;28;20205;-78
2021/07/22 02:13:37;;;;;;;10.10;7.90;;;19.30;93.30;;;;;;10438013;28;20604;-78
2021/07/22 02:18:41;;;;;;;9.90;9.00;;;19.30;93.50;;;;;;10457308;28;20362;-78
2021/07/22 02:23:52;;;;;;;9.30;8.50;;;19.20;93.80;;;;;;10459925;28;20229;-77
2021/07/22 02:29:20;;;;;;;9.10;8.30;;;19.20;94.00;;;;;;10455023;28;20680;-77
2021/07/22 02:34:23;;;;;;;9.77;8.43;;;19.20;94.80;;;;;;10454076;28;20217;-78
2021/07/22 02:39:28;;;;;;;9.43;8.53;;;19.20;94.00;;;;;;10454130;28;20221;-78
2021/07/22 02:44:30;;;;;;;9.17;8.27;;;19.20;94.80;;;;;;10454924;28;20243;-78
2021/07/22 02:49:49;;;;;;;13.53;8.67;;;19.10;94.20;;;;;;10453486;28;20204;-79
2021/07/22 02:54:54;;;;;;;9.73;8.83;;;19.10;93.90;;;;;;10435420;28;20225;-78
2021/07/22 02:59:58;;;;;;;10.10;9.20;;;19.10;94.70;;;;;;10450259;28;20354;-78
2021/07/22 03:05:01;;;;;;;10.57;9.53;;;19.00;94.80;;;;;;10431373;28;20228;-77
2021/07/22 03:10:07;;;;;;;9.10;8.20;;;19.00;94.80;;;;;;10446457;28;20201;-77
2021/07/22 03:15:10;;;;;;;10.80;9.80;;;18.90;94.90;;;;;;10466539;28;20642;-77
2021/07/22 03:20:18;;;;;;;9.87;9.07;;;18.90;95.20;;;;;;10452554;28;20248;-77
2021/07/22 03:25:34;;;;;;;13.63;10.67;;;18.90;95.50;;;;;;10446628;28;20251;-77
2021/07/22 03:30:42;;;;;;;11.07;9.70;;;18.90;95.50;;;;;;10435152;28;20206;-78
2021/07/22 03:36:05;;;;;;;14.17;9.80;;;18.90;95.80;;;;;;10445455;28;20229;-77
2021/07/22 03:41:16;;;;;;;11.67;9.30;;;18.80;94.40;;;;;;10438287;28;20670;-77
2021/07/22 03:46:19;;;;;;;10.83;9.73;;;18.70;95.30;;;;;;10449927;28;20313;-78
2021/07/22 03:51:22;;;;;;;10.77;9.77;;;18.70;95.90;;;;;;10461424;28;20207;-78
2021/07/22 03:56:27;;;;;;;9.53;8.63;;;18.70;96.30;;;;;;10445420;28;20569;-79
2021/07/22 04:01:36;;;;;;;11.67;10.40;;;18.70;95.40;;;;;;10437521;28;20309;-78
2021/07/22 04:06:48;;;;;;;11.37;10.27;;;18.80;96.80;;;;;;10445001;28;20207;-78
2021/07/22 04:12:01;;;;;;;9.40;8.50;;;18.90;96.40;;;;;;10444723;28;20600;-77
2021/07/22 04:17:29;;;;;;;10.33;9.43;;;18.90;95.10;;;;;;10438011;28;20300;-77
2021/07/22 04:23:01;;;;;;;9.33;8.50;;;18.90;96.50;;;;;;10370703;28;20241;-78
2021/07/22 04:28:27;;;;;;;9.97;8.97;;;18.90;96.50;;;;;;10413888;28;20209;-77
2021/07/22 04:33:30;;;;;;;9.60;8.70;;;18.90;96.20;;;;;;10450405;28;20754;-78
2021/07/22 04:38:45;;;;;;;10.80;9.70;;;18.90;96.20;;;;;;10438015;28;20206;-78
2021/07/22 04:44:02;;;;;;;10.27;9.30;;;18.90;96.10;;;;;;10441682;28;20220;-77
2021/07/22 04:49:23;;;;;;;9.77;8.87;;;18.90;96.30;;;;;;10452893;28;20653;-77
2021/07/22 04:54:44;;;;;;;10.17;9.27;;;18.90;96.90;;;;;;10450434;28;20558;-78
2021/07/22 04:59:47;;;;;;;10.07;9.10;;;19.00;97.20;;;;;;10438156;28;20217;-77
2021/07/22 05:04:50;;;;;;;13.40;10.47;;;19.00;97.40;;;;;;10422832;28;20272;-78
2021/07/22 05:09:53;;;;;;;9.90;9.10;;;19.00;96.90;;;;;;10442132;28;20224;-78
2021/07/22 05:15:19;;;;;;;10.30;9.30;;;19.10;97.20;;;;;;10431814;28;20259;-76
2021/07/22 05:20:44;;;;;;;11.27;10.10;;;19.20;97.70;;;;;;10446067;28;20206;-77
2021/07/22 05:26:07;;;;;;;10.03;9.13;;;19.20;97.10;;;;;;10427377;28;20236;-78
2021/07/22 05:31:33;;;;;;;11.83;10.60;;;19.30;97.40;;;;;;10420324;28;20203;-77
2021/07/22 05:36:52;;;;;;;11.10;10.10;;;19.50;97.60;;;;;;10442631;28;20542;-77
2021/07/22 05:42:11;;;;;;;12.50;11.13;;;19.60;98.00;;;;;;10456996;28;20653;-77
2021/07/22 05:47:14;;;;;;;13.73;12.40;;;19.70;97.60;;;;;;10458997;28;20197;-77
2021/07/22 05:52:16;;;;;;;13.13;11.20;;;19.80;97.80;;;;;;10458285;28;20217;-78
2021/07/22 05:57:18;;;;;;;13.40;11.80;;;19.90;97.90;;;;;;10456797;28;20683;-78
2021/07/22 06:02:22;;;;;;;12.83;11.63;;;20.10;97.60;;;;;;10452243;28;20762;-78
2021/07/22 06:07:24;;;;;;;15.23;12.97;;;20.20;96.60;;;;;;10449727;28;20716;-79
2021/07/22 06:12:29;;;;;;;17.60;13.30;;;20.30;96.40;;;;;;10446585;28;20551;-77
2021/07/22 06:17:35;;;;;;;14.27;12.80;;;20.40;96.60;;;;;;10455041;28;20216;-79
2021/07/22 06:22:38;;;;;;;15.33;12.80;;;20.40;96.90;;;;;;10452287;28;20232;-79
2021/07/22 06:27:41;;;;;;;16.73;12.40;;;20.50;96.20;;;;;;10458189;28;20676;-79
2021/07/22 06:32:44;;;;;;;14.10;12.70;;;20.60;96.60;;;;;;10461063;28;20270;-79
2021/07/22 06:37:47;;;;;;;20.97;13.50;;;20.70;95.40;;;;;;10456721;28;20275;-79
2021/07/22 06:42:56;;;;;;;14.60;12.20;;;20.90;95.90;;;;;;10458360;28;20754;-78
2021/07/22 06:48:02;;;;;;;16.70;12.30;;;21.10;94.80;;;;;;10448910;28;20619;-79
2021/07/22 06:53:04;;;;;;;14.07;10.77;;;21.20;95.10;;;;;;10441262;28;20221;-79
2021/07/22 06:58:07;;;;;;;12.77;11.57;;;21.40;94.90;;;;;;10456582;28;20205;-78
2021/07/22 07:03:10;;;;;;;15.00;12.77;;;21.60;95.30;;;;;;10439643;28;20257;-79
2021/07/22 07:08:12;;;;;;;16.13;13.60;;;21.80;95.20;;;;;;10456642;28;20193;-79
2021/07/22 07:13:15;;;;;;;13.07;11.67;;;22.10;95.00;;;;;;10456861;28;20724;-78
2021/07/22 07:18:18;;;;;;;14.23;12.90;;;22.30;93.60;;;;;;10457086;28;20292;-79
2021/07/22 07:23:20;;;;;;;15.33;12.53;;;22.50;92.50;;;;;;10457243;28;20224;-79
2021/07/22 07:28:22;;;;;;;18.03;14.70;;;22.70;92.50;;;;;;10455394;28;20811;-79
2021/07/22 07:33:28;;;;;;;17.53;13.07;;;23.10;92.60;;;;;;10463276;28;20587;-78
2021/07/22 07:38:30;;;;;;;12.20;10.90;;;23.50;90.80;;;;;;10457161;28;20205;-79
2021/07/22 07:43:32;;;;;;;15.20;11.33;;;23.70;90.90;;;;;;10455843;28;20308;-79
2021/07/22 07:48:35;;;;;;;31.40;14.43;;;24.00;90.60;;;;;;10450152;28;20744;-79
2021/07/22 07:53:38;;;;;;;142.70;21.00;;;24.20;89.30;;;;;;10457282;28;20217;-79
2021/07/22 07:58:40;;;;;;;30.13;14.10;;;24.60;88.50;;;;;;10455008;28;20225;-78
2021/07/22 08:03:43;;;;;;;15.60;11.23;;;25.00;87.50;;;;;;10454329;28;20228;-79
2021/07/22 08:08:45;;;;;;;15.93;11.33;;;25.50;84.80;;;;;;10454368;28;20296;-79
2021/07/22 08:13:47;;;;;;;24.17;11.40;;;26.00;83.90;;;;;;10447271;28;20321;-79
2021/07/22 08:18:53;;;;;;;16.33;9.60;;;26.40;81.30;;;;;;10436090;28;20201;-79
2021/07/22 08:23:55;;;;;;;14.90;10.40;;;26.90;80.60;;;;;;10451369;28;20221;-79
2021/07/22 08:28:57;;;;;;;10.43;9.30;;;27.30;75.50;;;;;;10452022;28;20201;-79
2021/07/22 08:34:01;;;;;;;10.40;8.90;;;27.70;74.00;;;;;;10452703;28;20237;-79
2021/07/22 08:39:03;;;;;;;31.80;11.47;;;28.00;75.20;;;;;;10453545;28;20197;-79
2021/07/22 08:44:08;;;;;;;20.00;9.97;;;28.40;75.40;;;;;;10453770;28;20232;-80
2021/07/22 08:49:12;;;;;;;21.57;10.77;;;28.70;71.30;;;;;;10453864;28;20206;-79
2021/07/22 08:54:14;;;;;;;11.77;9.10;;;29.00;71.10;;;;;;10451845;28;20213;-79
2021/07/22 08:59:18;;;;;;;17.13;8.90;;;29.20;69.80;;;;;;10453715;28;20536;-79
2021/07/22 09:04:21;;;;;;;13.97;8.37;;;29.40;67.80;;;;;;10460648;28;20720;-80
2021/07/22 09:09:24;;;;;;;36.10;9.60;;;29.70;67.70;;;;;;10439698;28;20198;-80
2021/07/22 09:14:28;;;;;;;8.47;7.43;;;29.90;68.30;;;;;;10456884;28;20671;-80
2021/07/22 09:19:39;;;;;;;9.63;7.30;;;30.00;66.30;;;;;;10459746;28;20201;-80
2021/07/22 09:24:49;;;;;;;8.67;7.87;;;30.20;63.10;;;;;;10455518;28;20229;-79
2021/07/22 09:29:57;;;;;;;13.60;12.20;;;30.30;63.70;;;;;;10460988;28;20392;-80
2021/07/22 09:35:12;;;;;;;12.63;8.23;;;30.50;63.80;;;;;;10460306;28;20776;-79
2021/07/22 09:40:17;;;;;;;7.37;6.77;;;30.70;60.50;;;;;;10468165;28;20224;-80
2021/07/22 09:45:21;;;;;;;7.37;6.63;;;30.80;59.50;;;;;;10458416;28;20224;-79
2021/07/22 09:50:26;;;;;;;7.07;6.47;;;31.10;59.00;;;;;;10458972;28;20198;-80
2021/07/22 09:55:29;;;;;;;7.90;7.30;;;31.30;60.00;;;;;;10459730;28;20224;-79
2021/07/22 10:00:34;;;;;;;7.00;6.40;;;31.80;56.30;;;;;;10463144;28;20232;-80
2021/07/22 10:05:41;;;;;;;11.50;7.60;;;32.50;54.80;;;;;;10460759;28;20229;-80
2021/07/22 10:10:50;;;;;;;7.60;6.90;;;33.10;55.90;;;;;;10456989;28;20200;-80
2021/07/22 10:15:52;;;;;;;8.00;7.20;;;34.10;55.80;;;;;;10465352;28;20274;-80
2021/07/22 10:20:59;;;;;;;7.43;6.83;;;35.00;53.30;;;;;;10458260;28;20205;-80
2021/07/22 10:26:01;;;;;;;7.17;6.57;;;36.20;51.30;;;;;;10464621;28;20255;-80
2021/07/22 10:31:05;;;;;;;7.90;7.20;;;35.90;50.10;;;;;;10458561;28;20208;-79
2021/07/22 10:36:09;;;;;;;7.97;7.20;;;34.10;48.90;;;;;;10462352;28;20661;-78
2021/07/22 10:41:35;;;;;;;13.10;8.20;;;32.50;52.70;;;;;;10460301;28;20676;-79
2021/07/22 10:46:54;;;;;;;8.23;7.53;;;31.00;54.60;;;;;;10457003;28;20227;-79
2021/07/22 10:51:57;;;;;;;11.20;7.40;;;30.00;55.80;;;;;;10457189;28;20635;-79
2021/07/22 10:57:00;;;;;;;9.97;7.70;;;29.30;58.20;;;;;;10438406;28;20282;-79
2021/07/22 11:02:02;;;;;;;11.13;8.70;;;28.70;60.20;;;;;;10461114;28;20263;-79
2021/07/22 11:07:07;;;;;;;10.87;9.17;;;28.30;59.50;;;;;;10458139;28;20612;-79
2021/07/22 11:12:09;;;;;;;9.10;8.20;;;27.90;60.90;;;;;;10454860;28;20213;-79
2021/07/22 11:17:11;;;;;;;8.87;7.00;;;27.70;61.30;;;;;;10454126;28;20296;-79
2021/07/22 11:22:16;;;;;;;8.13;7.43;;;27.40;64.30;;;;;;10455262;28;20261;-79
2021/07/22 11:27:18;;;;;;;92.83;20.47;;;27.20;63.40;;;;;;10455585;28;20197;-79
2021/07/22 11:32:25;;;;;;;8.97;8.20;;;27.10;66.70;;;;;;10455205;28;20225;-79
2021/07/22 11:37:29;;;;;;;9.43;8.57;;;26.90;63.10;;;;;;10464685;28;20212;-78
2021/07/22 11:42:31;;;;;;;46.23;13.63;;;26.80;66.30;;;;;;10453423;28;20338;-79
2021/07/22 11:47:34;;;;;;;9.07;8.17;;;26.70;67.30;;;;;;10453457;28;20205;-78
2021/07/22 11:52:37;;;;;;;9.47;8.60;;;26.60;66.40;;;;;;10460137;28;20213;-79
2021/07/22 11:57:40;;;;;;;9.30;8.17;;;26.60;64.70;;;;;;10452912;28;20204;-79
2021/07/22 12:02:46;;;;;;;9.23;8.33;;;26.50;65.20;;;;;;10452844;28;20228;-78
2021/07/22 12:07:49;;;;;;;9.03;8.13;;;26.40;65.00;;;;;;10435558;28;20274;-79
2021/07/22 12:12:57;;;;;;;17.63;10.07;;;26.40;67.70;;;;;;10454466;28;20217;-79
2021/07/22 12:17:59;;;;;;;10.27;9.27;;;26.40;69.00;;;;;;10452631;28;20229;-79
2021/07/22 12:23:34;;;;;;;9.30;8.50;;;26.40;65.60;;;;;;10478094;22;20255;-82
2021/07/22 12:28:36;;;;;;;9.97;8.33;;;26.30;71.20;;;;;;10491189;28;20570;-82
2021/07/22 12:33:38;;;;;;;9.73;8.73;;;26.30;66.50;;;;;;10492202;28;20220;-82
2021/07/22 12:38:44;;;;;;;11.10;8.87;;;26.40;69.10;;;;;;10500933;28;20201;-82
2021/07/22 12:43:52;;;;;;;13.90;8.50;;;26.40;68.50;;;;;;10506116;28;20303;-82
2021/07/22 12:48:54;;;;;;;10.13;9.20;;;26.50;69.10;;;;;;10468409;28;20235;-82
2021/07/22 12:53:58;;;;;;;27.80;10.97;;;26.50;67.70;;;;;;10507872;28;20224;-82
2021/07/22 12:59:10;;;;;;;12.40;9.83;;;26.50;68.80;;;;;;10484376;28;20193;-82
2021/07/22 13:04:12;;;;;;;10.53;8.33;;;26.50;69.20;;;;;;10449026;28;20323;-83
2021/07/22 13:09:15;;;;;;;18.67;16.73;;;26.50;70.20;;;;;;10501775;28;20197;-83
2021/07/22 13:14:17;;;;;;;10.73;9.70;;;26.40;69.30;;;;;;10500194;28;20263;-83
2021/07/22 13:19:19;;;;;;;16.77;10.00;;;26.30;70.50;;;;;;10504627;28;20214;-82
2021/07/22 13:24:23;;;;;;;19.90;9.57;;;26.30;70.30;;;;;;10485098;28;20225;-82
2021/07/22 13:29:25;;;;;;;10.23;9.03;;;26.40;69.00;;;;;;10444891;28;20228;-82
2021/07/22 13:34:27;;;;;;;9.37;8.50;;;26.60;69.00;;;;;;10492635;28;20240;-82
2021/07/22 13:39:31;;;;;;;14.80;13.30;;;26.80;67.00;;;;;;10502779;28;20258;-82
2021/07/22 13:44:33;;;;;;;10.47;8.87;;;26.80;67.50;;;;;;10496886;28;20224;-82
2021/07/22 13:49:36;;;;;;;9.97;7.70;;;26.80;69.80;;;;;;10462744;28;20197;-82
2021/07/22 13:54:40;;;;;;;16.43;9.20;;;26.60;70.30;;;;;;10485429;28;20584;-83
2021/07/22 13:59:42;;;;;;;10.90;7.57;;;26.50;68.20;;;;;;10467760;28;20205;-83
2021/07/22 14:04:44;;;;;;;9.87;8.20;;;26.40;67.80;;;;;;10474978;28;20266;-83
2021/07/22 14:09:48;;;;;;;8.67;7.87;;;26.40;69.10;;;;;;10497546;28;20200;-83
2021/07/22 14:14:50;;;;;;;9.00;8.10;;;26.30;70.00;;;;;;10495537;28;20221;-83
2021/07/22 14:19:52;;;;;;;9.23;8.43;;;26.20;69.90;;;;;;10490557;28;20660;-83
2021/07/22 14:24:56;;;;;;;9.70;8.80;;;26.20;68.70;;;;;;10473765;28;20741;-83
2021/07/22 14:29:58;;;;;;;9.53;8.53;;;26.10;74.50;;;;;;10473074;28;20208;-83
2021/07/22 14:35:00;;;;;;;9.67;8.37;;;26.00;69.40;;;;;;10470181;28;20228;-83
2021/07/22 14:40:05;;;;;;;10.07;8.90;;;26.00;68.30;;;;;;10482775;28;20204;-83
2021/07/22 14:45:08;;;;;;;11.10;8.83;;;26.00;68.20;;;;;;10497548;28;20216;-83
2021/07/22 14:50:10;;;;;;;8.50;7.70;;;26.00;73.10;;;;;;10479001;28;20212;-83
2021/07/22 14:55:14;;;;;;;11.43;8.00;;;26.10;69.30;;;;;;10496957;28;20220;-83
2021/07/22 15:00:16;;;;;;;10.47;8.20;;;26.10;69.00;;;;;;10478168;28;20292;-83
2021/07/22 15:05:18;;;;;;;10.43;9.17;;;26.10;67.70;;;;;;10478833;28;20593;-83
2021/07/22 15:10:22;;;;;;;10.00;8.53;;;26.20;70.70;;;;;;10478336;28;20208;-83
2021/07/22 15:15:24;;;;;;;16.00;9.13;;;26.20;68.10;;;;;;10494544;28;20240;-83
2021/07/22 15:20:26;;;;;;;8.80;7.90;;;26.20;66.70;;;;;;10494608;28;20645;-83
2021/07/22 15:25:30;;;;;;;8.80;7.90;;;26.20;66.20;;;;;;10495582;28;20711;-83
2021/07/22 15:30:32;;;;;;;10.10;9.10;;;26.30;66.80;;;;;;10493923;28;20207;-83
2021/07/22 15:35:37;;;;;;;8.60;7.70;;;26.30;67.30;;;;;;10488624;28;20217;-83
2021/07/22 15:40:40;;;;;;;8.43;7.70;;;26.30;67.00;;;;;;10483353;28;20197;-82
2021/07/22 15:45:42;;;;;;;9.43;8.73;;;26.30;67.80;;;;;;10479902;28;20220;-82
2021/07/22 15:50:44;;;;;;;9.60;8.70;;;26.30;65.70;;;;;;10503839;28;20220;-82
2021/07/22 15:55:48;;;;;;;8.90;8.10;;;26.30;66.20;;;;;;10459768;28;20252;-82
2021/07/22 16:00:50;;;;;;;8.37;7.53;;;26.30;67.20;;;;;;10462449;28;20301;-82
2021/07/22 16:05:52;;;;;;;9.07;8.17;;;26.20;66.50;;;;;;10462579;28;20240;-83
2021/07/22 16:10:56;;;;;;;8.43;7.63;;;26.20;68.10;;;;;;10492393;28;20795;-83
2021/07/22 16:15:58;;;;;;;9.10;8.20;;;26.10;67.90;;;;;;10459192;28;20245;-83
2021/07/22 16:21:00;;;;;;;14.40;8.27;;;26.10;66.30;;;;;;10487653;28;20208;-82
2021/07/22 16:26:03;;;;;;;9.03;8.23;;;26.00;68.60;;;;;;10484582;28;20310;-82
2021/07/22 16:31:06;;;;;;;8.00;7.30;;;26.00;69.20;;;;;;10493886;28;20235;-82
2021/07/22 16:36:08;;;;;;;8.93;8.00;;;26.00;68.40;;;;;;10489409;28;20829;-82
2021/07/22 16:41:11;;;;;;;9.23;8.33;;;25.90;69.90;;;;;;10507888;28;20208;-82
2021/07/22 16:46:45;;;;;;;8.63;7.87;;;25.90;71.60;;;;;;10486539;28;20235;-82
2021/07/22 16:51:52;;;;;;;9.37;8.47;;;25.90;69.00;;;;;;10470225;28;20285;-82
2021/07/22 16:57:06;;;;;;;10.27;9.13;;;25.80;69.50;;;;;;10484207;28;20578;-82
2021/07/22 17:02:18;;;;;;;11.73;8.23;;;25.80;69.40;;;;;;10485131;28;20236;-83
2021/07/22 17:07:22;;;;;;;9.63;8.73;;;25.90;67.50;;;;;;10464236;28;20205;-82
2021/07/22 17:18:34;;;;;;;10.60;7.50;;;25.80;69.70;;;;;;10501645;28;20204;-83
2021/07/22 17:23:39;;;;;;;9.30;8.50;;;25.80;69.10;;;;;;10488455;28;20251;-82
2021/07/22 17:28:48;;;;;;;10.10;8.00;;;25.70;70.60;;;;;;10488063;28;20208;-82
2021/07/22 17:34:02;;;;;;;10.50;9.43;;;25.70;72.40;;;;;;10501629;28;20220;-82
2021/07/22 17:39:05;;;;;;;8.93;8.03;;;25.60;70.70;;;;;;10477966;28;20233;-83
2021/07/22 17:44:09;;;;;;;12.23;8.27;;;25.60;72.90;;;;;;10500674;28;20278;-82
2021/07/22 17:49:11;;;;;;;8.53;7.83;;;25.60;71.00;;;;;;10474040;28;20204;-82
2021/07/22 17:54:14;;;;;;;11.07;8.93;;;25.60;71.40;;;;;;10487122;28;20225;-83
2021/07/22 17:59:17;;;;;;;10.07;9.07;;;25.60;70.70;;;;;;10500750;28;20279;-82
2021/07/22 18:04:19;;;;;;;10.30;8.97;;;25.50;71.30;;;;;;10496178;28;20666;-83
2021/07/22 18:09:21;;;;;;;9.47;8.67;;;25.50;70.60;;;;;;10493518;28;20978;-82
2021/07/22 18:14:25;;;;;;;9.37;8.47;;;25.40;70.40;;;;;;10470919;28;20227;-83
2021/07/22 18:19:27;;;;;;;9.33;8.43;;;25.30;71.50;;;;;;10488792;28;20204;-82
2021/07/22 18:24:29;;;;;;;10.27;8.97;;;25.30;70.60;;;;;;10479370;28;20312;-83
2021/07/22 18:29:32;;;;;;;20.80;9.80;;;25.20;71.10;;;;;;10466086;28;20295;-83
2021/07/22 18:34:45;;;;;;;9.57;8.67;;;25.10;72.80;;;;;;10478875;28;20696;-82
2021/07/22 18:39:47;;;;;;;19.73;9.67;;;25.00;72.00;;;;;;10486516;28;20653;-83
2021/07/22 18:44:50;;;;;;;10.80;9.70;;;25.00;71.50;;;;;;10498197;28;20372;-82
2021/07/22 18:49:53;;;;;;;11.37;9.60;;;24.80;70.70;;;;;;10491239;28;20678;-83
2021/07/22 18:54:55;;;;;;;12.33;9.63;;;24.80;72.20;;;;;;10493460;28;20282;-82
2021/07/22 18:59:58;;;;;;;10.97;9.47;;;24.70;75.20;;;;;;10495916;28;20223;-83
2021/07/22 19:05:00;;;;;;;11.20;10.10;;;24.60;73.60;;;;;;10495957;28;20765;-83
2021/07/22 19:10:03;;;;;;;10.20;9.10;;;24.50;74.70;;;;;;10477072;28;20687;-83
2021/07/22 19:15:10;;;;;;;10.60;9.60;;;24.40;74.30;;;;;;10476074;28;20359;-83
2021/07/22 19:20:14;;;;;;;10.30;9.40;;;24.30;77.40;;;;;;10480208;28;20461;-82
2021/07/22 19:25:17;;;;;;;11.97;9.47;;;24.30;79.40;;;;;;10496101;28;20324;-84
2021/07/22 19:30:22;;;;;;;11.60;10.40;;;24.20;79.10;;;;;;10497936;28;20518;-83
2021/07/22 19:35:24;;;;;;;10.60;9.33;;;24.10;79.40;;;;;;10492525;28;20309;-83
2021/07/22 19:40:26;;;;;;;11.70;9.60;;;24.00;80.20;;;;;;10497691;28;20591;-83
2021/07/22 19:45:31;;;;;;;12.10;9.93;;;24.00;81.70;;;;;;10472180;28;20236;-83
2021/07/22 19:50:33;;;;;;;11.00;9.90;;;23.90;75.70;;;;;;10478666;28;20291;-82
2021/07/22 19:55:35;;;;;;;10.97;9.97;;;23.90;78.00;;;;;;10492076;28;20254;-82
2021/07/22 20:00:38;;;;;;;10.63;9.57;;;23.80;78.30;;;;;;10461723;28;20582;-83
2021/07/22 20:05:41;;;;;;;11.30;10.20;;;23.70;79.10;;;;;;10490056;28;20258;-83
2021/07/22 20:10:44;;;;;;;12.13;9.50;;;23.60;80.00;;;;;;10444982;28;20252;-83
2021/07/22 20:15:47;;;;;;;11.03;9.87;;;23.50;81.70;;;;;;10464820;28;20715;-83
2021/07/22 20:20:49;;;;;;;10.93;10.03;;;23.40;81.10;;;;;;10485012;28;20598;-83
2021/07/22 20:25:53;;;;;;;10.70;9.70;;;23.40;82.10;;;;;;10467093;28;20274;-84
2021/07/22 20:30:56;;;;;;;12.40;11.00;;;23.30;82.10;;;;;;10453860;28;20211;-83
2021/07/22 20:35:58;;;;;;;14.13;10.23;;;23.20;81.90;;;;;;10463467;28;20217;-83
2021/07/22 20:41:01;;;;;;;10.77;9.77;;;23.00;82.90;;;;;;10463930;28;20193;-83
2021/07/22 20:46:04;;;;;;;12.30;10.73;;;23.00;83.70;;;;;;10445552;28;20782;-83
2021/07/22 20:51:07;;;;;;;11.07;9.93;;;22.90;82.40;;;;;;10495079;28;20204;-83
2021/07/22 20:56:09;;;;;;;12.10;10.70;;;22.90;84.50;;;;;;10475742;28;20672;-83
2021/07/22 21:01:14;;;;;;;11.80;10.00;;;22.90;83.30;;;;;;10473354;28;20624;-83
2021/07/22 21:06:16;;;;;;;14.20;10.57;;;22.80;82.90;;;;;;10453528;28;20758;-83
2021/07/22 21:11:18;;;;;;;14.07;9.50;;;22.70;83.60;;;;;;10459316;28;20205;-83
2021/07/22 21:16:21;;;;;;;11.63;10.50;;;22.60;83.50;;;;;;10467710;28;20229;-83
2021/07/22 21:21:23;;;;;;;11.97;10.50;;;22.50;84.90;;;;;;10476887;28;20204;-83
2021/07/22 21:26:26;;;;;;;16.27;10.43;;;22.50;84.60;;;;;;10465732;28;20252;-83
2021/07/22 21:31:29;;;;;;;15.17;11.83;;;22.50;84.50;;;;;;10444252;28;20205;-83
2021/07/22 21:36:31;;;;;;;11.10;10.00;;;22.50;84.90;;;;;;10480013;28;20274;-83
2021/07/22 21:41:34;;;;;;;12.77;11.50;;;22.50;86.60;;;;;;10493800;28;20205;-84
2021/07/22 21:46:38;;;;;;;11.37;10.27;;;22.50;85.10;;;;;;10474201;28;20213;-83
2021/07/22 21:51:40;;;;;;;10.67;9.63;;;22.40;86.20;;;;;;10453384;28;20680;-82
2021/07/22 21:56:42;;;;;;;17.70;11.17;;;22.40;84.30;;;;;;10495684;28;20220;-82
2021/07/22 22:01:46;;;;;;;12.43;11.03;;;22.30;85.30;;;;;;10490907;28;20569;-82
2021/07/22 22:06:48;;;;;;;11.13;10.03;;;22.30;85.20;;;;;;10482506;28;20221;-82
2021/07/22 22:11:50;;;;;;;12.10;10.90;;;22.20;85.30;;;;;;10484144;28;20724;-83
2021/07/22 22:16:54;;;;;;;12.60;11.30;;;22.20;85.60;;;;;;10493206;28;20204;-82
2021/07/22 22:21:56;;;;;;;12.40;11.10;;;22.10;86.20;;;;;;10494041;28;20724;-82
2021/07/22 22:26:58;;;;;;;11.87;10.77;;;22.00;87.80;;;;;;10469517;28;20294;-82
2021/07/22 22:32:01;;;;;;;14.00;12.10;;;22.00;87.90;;;;;;10505937;28;20203;-82
2021/07/22 22:37:04;;;;;;;14.13;11.63;;;21.90;87.80;;;;;;10487634;28;20213;-82
2021/07/22 22:42:06;;;;;;;13.43;12.10;;;21.80;88.40;;;;;;10481378;28;20212;-82
2021/07/22 22:47:10;;;;;;;12.77;11.57;;;21.70;88.20;;;;;;10459301;28;20247;-82
2021/07/22 22:52:12;;;;;;;13.57;12.20;;;21.70;89.20;;;;;;10492790;28;20197;-82
2021/07/22 22:57:14;;;;;;;13.73;12.00;;;21.70;88.30;;;;;;10464097;28;20278;-82
2021/07/22 23:02:17;;;;;;;14.03;12.70;;;21.70;89.90;;;;;;10460707;28;20644;-82
2021/07/22 23:07:20;;;;;;;13.67;11.23;;;21.60;90.50;;;;;;10474807;28;20253;-82
2021/07/22 23:12:22;;;;;;;12.57;11.27;;;21.60;90.30;;;;;;10467213;28;20679;-82
2021/07/22 23:17:25;;;;;;;13.47;12.17;;;21.50;89.40;;;;;;10459537;28;20313;-83
2021/07/22 23:22:28;;;;;;;13.10;11.80;;;21.40;90.20;;;;;;10468551;28;20704;-82
2021/07/22 23:27:30;;;;;;;12.47;11.27;;;21.30;90.90;;;;;;10479527;28;20670;-82
2021/07/22 23:32:33;;;;;;;12.80;11.50;;;21.30;90.20;;;;;;10464422;28;20688;-82
2021/07/22 23:37:35;;;;;;;15.53;11.30;;;21.20;90.30;;;;;;10474438;28;20196;-82
2021/07/22 23:42:38;;;;;;;12.50;11.30;;;21.10;91.30;;;;;;10489106;28;20279;-82
2021/07/22 23:47:41;;;;;;;12.27;11.07;;;21.00;91.60;;;;;;10471219;28;20247;-82
2021/07/22 23:52:43;;;;;;;14.40;12.50;;;21.00;91.70;;;;;;10466721;28;20229;-82
2021/07/22 23:57:45;;;;;;;12.60;11.40;;;20.90;91.60;;;;;;10504600;28;20196;-82
